Terminal Aerodrome Forecast
Issued by NWS

Home | Current Version | Previous Version | Text Only | Print | Product List | Glossary On
Versions: 1 2 3 4 5 6 7 8 9 10 11 12 13 14 15 16 17 18 19 20
000
FTUS42 KKEY 202332
TAFMTH
TAF
KMTH 202332Z 2100/2124 11011G20KT P6SM FEW020
     FM210500 11014KT P6SM SCT020 BKN040
     FM211300 10015G20KT P6SM FEW020 SCT040=

USA.gov is the U.S. government's official web portal to all federal, state and local government web resources and services.